Impacts METAR Board
IDs:

KBWI - Baltimore-Washington, MD, US

Updated at: 2100 UTC 20 Jun 2019
Potential Impact None Slight Moderate High
Time 20/09Z 20/10Z 20/11Z 20/12Z 20/13Z 20/14Z 20/15Z 20/16Z 20/17Z 20/18Z 20/19Z 20/20Z 20/21Z
Temp74 74 75 76 78 82 84 87 86 87 84 90 89
Dewpt72 73 73 74 74 74 73 72 72 74 70 68 67
Altim29.62 29.63 29.61 29.62 29.62 29.60 29.59 29.57 29.55 29.53 29.53 29.51 29.51
VIS10 5 5 8 8 9 9 9 10 10 10 10 10
CIG15 6 19 8 11 16 18 150 48 250 250 250 250
CoverBKNBKNOVCBKNBKNBKNBKNBKNBKNBKNBKNBKNBKN
FltCatMVFRIFRMVFRIFRMVFRMVFRMVFRVFRVFRVFRVFRVFRVFR
WX--BRBR--------------------
WDir15001902002302100230210250230280280
WSpd3 0 3 3 6 3 3 8 7 11 8 15 13
WGst-- -- -- -- -- -- -- -- -- -- -- -- --
Raw hourly METARs
KBWI 200854Z 15003KT 10SM SCT010 BKN015 23/22 A2962 RMK AO2 SLP027 T02330222 56006 $
KBWI 200954Z 00000KT 5SM BR BKN006 BKN014 23/23 A2963 RMK AO2 SLP031 T02330228 $
KBWI 201054Z 19003KT 5SM BR FEW005 BKN019 BKN090 OVC250 24/23 A2961 RMK AO2 SLP024 T02390228 $
KBWI 201154Z 20003KT 8SM BKN008 BKN018 BKN090 BKN250 24/23 A2962 RMK AO2 SLP028 70010 T02440233 10244 20233 52000
KBWI 201254Z 23006KT 8SM BKN011 BKN120 BKN150 BKN250 26/23 A2962 RMK AO2 SLP027 T02560233
KBWI 201354Z 21003KT 9SM BKN016 BKN120 BKN250 28/23 A2960 RMK AO2 SLP023 T02780233
KBWI 201454Z VRB03KT 9SM BKN018 BKN100 BKN120 BKN250 29/23 A2959 RMK AO2 SLP020 T02890228 58008
KBWI 201554Z 23008KT 9SM SCT028 BKN150 BKN250 31/22 A2957 RMK AO2 SLP013 T03060222
KBWI 201654Z COR 21007KT 10SM SCT032TCU BKN048 BKN110 BKN250 30/22 A2955 RMK AO2 SLP005 CB DSNT SE-SW AND DSNT W-NW MOV NE TCU ALQDS T03000222
KBWI 201754Z 25011KT 10SM FEW024 SCT042CB SCT065 BKN250 31/23 A2953 RMK AO2 LTG DSNT NW RAB27E42 SLP998 CB NE-E AND DSNT SW AND DSNT NW MOV E TCU SE AND DSNT W-NW P0007 60007 T03060233 10311 20244 58021
KBWI 201854Z 23008KT 10SM FEW022 SCT050CB SCT110 BKN250 29/21 A2953 RMK AO2 PK WND 27026/1838 RAB40E53 SLP997 CB DSNT NE AND E-SE MOV E P0000 T02890211
KBWI 201954Z 28015KT 10SM SCT055TCU SCT070 BKN250 32/20 A2951 RMK AO2 LTG DSNT N AND NE SLP990 TCU N CB DSNT NE MOV E T03220200
KBWI 202054Z 28013KT 10SM SCT055 SCT095 BKN250 32/19 A2951 RMK AO2 SLP990 CB DSNT E MOV E 60000 T03170194 56008



Page loaded:  21:24 UTC  |   02:24 PM Pacific  |   03:24 PM Mountain  |   04:24 PM Central  |   05:24 PM Eastern

 

ADVISORIES

FORECASTS

FORECASTS

OBSERVATIONS

USER TOOLS

ABOUT US